sensor_id;sensor_type;location;lat;lon;timestamp;P1;durP1;ratioP1;P2;durP2;ratioP2
1010;SDS011;494;48.744;10.106;2023-04-03T00:01:37;16.57;;;14.03;;
1010;SDS011;494;48.744;10.106;2023-04-03T00:04:07;16.50;;;13.90;;
1010;SDS011;494;48.744;10.106;2023-04-03T00:06:36;16.10;;;13.87;;
1010;SDS011;494;48.744;10.106;2023-04-03T00:09:05;15.90;;;13.93;;
1010;SDS011;494;48.744;10.106;2023-04-03T00:11:36;15.63;;;13.90;;
1010;SDS011;494;48.744;10.106;2023-04-03T00:14:06;18.57;;;14.37;;
1010;SDS011;494;48.744;10.106;2023-04-03T00:16:35;16.40;;;13.33;;
1010;SDS011;494;48.744;10.106;2023-04-03T00:19:03;16.07;;;13.87;;
1010;SDS011;494;48.744;10.106;2023-04-03T00:21:32;19.03;;;14.47;;
1010;SDS011;494;48.744;10.106;2023-04-03T00:24:02;16.80;;;14.40;;
1010;SDS011;494;48.744;10.106;2023-04-03T00:26:31;15.50;;;13.90;;
1010;SDS011;494;48.744;10.106;2023-04-03T00:29:00;16.30;;;13.77;;
1010;SDS011;494;48.744;10.106;2023-04-03T00:31:30;15.40;;;13.60;;
1010;SDS011;494;48.744;10.106;2023-04-03T00:33:59;15.33;;;13.70;;
1010;SDS011;494;48.744;10.106;2023-04-03T00:36:28;16.00;;;13.60;;
1010;SDS011;494;48.744;10.106;2023-04-03T00:38:57;16.30;;;13.90;;
1010;SDS011;494;48.744;10.106;2023-04-03T00:41:26;19.73;;;13.90;;
1010;SDS011;494;48.744;10.106;2023-04-03T00:43:55;15.20;;;12.97;;
1010;SDS011;494;48.744;10.106;2023-04-03T00:46:23;14.30;;;12.77;;
1010;SDS011;494;48.744;10.106;2023-04-03T00:48:54;15.40;;;13.20;;
1010;SDS011;494;48.744;10.106;2023-04-03T00:51:23;16.77;;;13.60;;
1010;SDS011;494;48.744;10.106;2023-04-03T00:53:54;16.20;;;13.70;;
1010;SDS011;494;48.744;10.106;2023-04-03T00:56:28;15.17;;;13.10;;
1010;SDS011;494;48.744;10.106;2023-04-03T00:59:00;15.43;;;13.03;;
1010;SDS011;494;48.744;10.106;2023-04-03T01:01:34;15.97;;;13.90;;
1010;SDS011;494;48.744;10.106;2023-04-03T01:06:57;17.93;;;13.67;;
1010;SDS011;494;48.744;10.106;2023-04-03T01:09:31;15.13;;;12.93;;
1010;SDS011;494;48.744;10.106;2023-04-03T01:12:15;14.80;;;12.53;;
1010;SDS011;494;48.744;10.106;2023-04-03T01:14:45;20.33;;;13.53;;
1010;SDS011;494;48.744;10.106;2023-04-03T01:17:30;15.90;;;13.40;;
1010;SDS011;494;48.744;10.106;2023-04-03T01:23:27;15.43;;;12.60;;
1010;SDS011;494;48.744;10.106;2023-04-03T01:26:17;15.80;;;12.77;;
1010;SDS011;494;48.744;10.106;2023-04-03T01:28:46;14.10;;;12.40;;
1010;SDS011;494;48.744;10.106;2023-04-03T01:31:18;14.47;;;12.10;;
1010;SDS011;494;48.744;10.106;2023-04-03T01:33:54;15.83;;;13.03;;
1010;SDS011;494;48.744;10.106;2023-04-03T01:36:24;19.60;;;13.00;;
1010;SDS011;494;48.744;10.106;2023-04-03T01:38:55;16.93;;;12.90;;
1010;SDS011;494;48.744;10.106;2023-04-03T01:41:26;14.80;;;12.80;;
1010;SDS011;494;48.744;10.106;2023-04-03T01:43:56;15.63;;;12.73;;
1010;SDS011;494;48.744;10.106;2023-04-03T01:46:24;14.03;;;12.47;;
1010;SDS011;494;48.744;10.106;2023-04-03T01:48:55;14.77;;;12.80;;
1010;SDS011;494;48.744;10.106;2023-04-03T01:51:23;14.37;;;12.77;;
1010;SDS011;494;48.744;10.106;2023-04-03T01:53:52;15.10;;;12.93;;
1010;SDS011;494;48.744;10.106;2023-04-03T01:56:21;14.57;;;12.50;;
1010;SDS011;494;48.744;10.106;2023-04-03T01:58:50;14.90;;;12.33;;
1010;SDS011;494;48.744;10.106;2023-04-03T02:01:19;16.03;;;12.40;;
1010;SDS011;494;48.744;10.106;2023-04-03T02:03:48;15.23;;;12.00;;
1010;SDS011;494;48.744;10.106;2023-04-03T02:06:19;14.03;;;12.50;;
1010;SDS011;494;48.744;10.106;2023-04-03T02:08:47;16.10;;;12.80;;
1010;SDS011;494;48.744;10.106;2023-04-03T02:11:16;14.93;;;12.63;;
1010;SDS011;494;48.744;10.106;2023-04-03T02:13:45;14.27;;;12.07;;
1010;SDS011;494;48.744;10.106;2023-04-03T02:16:13;13.90;;;12.37;;
1010;SDS011;494;48.744;10.106;2023-04-03T02:18:45;14.80;;;13.30;;
1010;SDS011;494;48.744;10.106;2023-04-03T02:21:23;14.47;;;12.67;;
1010;SDS011;494;48.744;10.106;2023-04-03T02:23:51;14.77;;;12.90;;
1010;SDS011;494;48.744;10.106;2023-04-03T02:26:20;15.70;;;11.80;;
1010;SDS011;494;48.744;10.106;2023-04-03T02:28:49;14.23;;;12.37;;
1010;SDS011;494;48.744;10.106;2023-04-03T02:31:18;14.93;;;12.30;;
1010;SDS011;494;48.744;10.106;2023-04-03T02:33:47;14.90;;;12.57;;
1010;SDS011;494;48.744;10.106;2023-04-03T02:36:16;14.77;;;13.17;;
1010;SDS011;494;48.744;10.106;2023-04-03T02:38:46;14.13;;;12.63;;
1010;SDS011;494;48.744;10.106;2023-04-03T02:41:15;17.60;;;13.17;;
1010;SDS011;494;48.744;10.106;2023-04-03T02:43:44;16.23;;;12.70;;
1010;SDS011;494;48.744;10.106;2023-04-03T02:46:13;15.17;;;12.20;;
1010;SDS011;494;48.744;10.106;2023-04-03T02:48:45;13.53;;;11.80;;
1010;SDS011;494;48.744;10.106;2023-04-03T02:51:14;15.03;;;12.87;;
1010;SDS011;494;48.744;10.106;2023-04-03T02:53:42;14.23;;;12.47;;
1010;SDS011;494;48.744;10.106;2023-04-03T02:56:12;15.57;;;12.90;;
1010;SDS011;494;48.744;10.106;2023-04-03T02:58:41;15.20;;;12.90;;
1010;SDS011;494;48.744;10.106;2023-04-03T03:01:11;14.73;;;12.43;;
1010;SDS011;494;48.744;10.106;2023-04-03T03:03:40;14.80;;;12.77;;
1010;SDS011;494;48.744;10.106;2023-04-03T03:06:10;13.73;;;12.23;;
1010;SDS011;494;48.744;10.106;2023-04-03T03:08:46;13.70;;;12.07;;
1010;SDS011;494;48.744;10.106;2023-04-03T03:11:17;14.77;;;12.47;;
1010;SDS011;494;48.744;10.106;2023-04-03T03:13:47;13.90;;;11.70;;
1010;SDS011;494;48.744;10.106;2023-04-03T03:16:16;13.87;;;12.37;;
1010;SDS011;494;48.744;10.106;2023-04-03T03:18:45;14.07;;;12.40;;
1010;SDS011;494;48.744;10.106;2023-04-03T03:21:13;13.40;;;11.87;;
1010;SDS011;494;48.744;10.106;2023-04-03T03:23:42;15.20;;;11.63;;
1010;SDS011;494;48.744;10.106;2023-04-03T03:26:11;16.40;;;12.20;;
1010;SDS011;494;48.744;10.106;2023-04-03T03:28:42;14.47;;;12.23;;
1010;SDS011;494;48.744;10.106;2023-04-03T03:31:12;14.07;;;11.70;;
1010;SDS011;494;48.744;10.106;2023-04-03T03:33:41;14.33;;;12.83;;
1010;SDS011;494;48.744;10.106;2023-04-03T03:36:10;13.60;;;12.20;;
1010;SDS011;494;48.744;10.106;2023-04-03T03:38:39;16.70;;;12.27;;
1010;SDS011;494;48.744;10.106;2023-04-03T03:41:08;13.70;;;12.03;;
1010;SDS011;494;48.744;10.106;2023-04-03T03:43:37;20.30;;;12.20;;
1010;SDS011;494;48.744;10.106;2023-04-03T03:46:08;14.27;;;11.37;;
1010;SDS011;494;48.744;10.106;2023-04-03T03:48:37;15.83;;;12.13;;
1010;SDS011;494;48.744;10.106;2023-04-03T03:51:05;13.17;;;11.30;;
1010;SDS011;494;48.744;10.106;2023-04-03T03:53:34;13.27;;;11.60;;
1010;SDS011;494;48.744;10.106;2023-04-03T03:56:03;14.67;;;11.60;;
1010;SDS011;494;48.744;10.106;2023-04-03T03:58:33;12.83;;;11.43;;
1010;SDS011;494;48.744;10.106;2023-04-03T04:01:02;13.50;;;11.53;;
1010;SDS011;494;48.744;10.106;2023-04-03T04:03:34;15.33;;;12.30;;
1010;SDS011;494;48.744;10.106;2023-04-03T04:06:04;13.07;;;11.63;;
1010;SDS011;494;48.744;10.106;2023-04-03T04:08:33;13.23;;;11.33;;
1010;SDS011;494;48.744;10.106;2023-04-03T04:11:01;14.13;;;10.97;;
1010;SDS011;494;48.744;10.106;2023-04-03T04:13:30;13.53;;;11.17;;
1010;SDS011;494;48.744;10.106;2023-04-03T04:15:59;13.40;;;10.90;;
1010;SDS011;494;48.744;10.106;2023-04-03T04:18:28;13.13;;;11.40;;
1010;SDS011;494;48.744;10.106;2023-04-03T04:20:59;12.83;;;10.70;;
1010;SDS011;494;48.744;10.106;2023-04-03T04:23:27;12.57;;;10.50;;
1010;SDS011;494;48.744;10.106;2023-04-03T04:25:56;12.70;;;10.77;;
1010;SDS011;494;48.744;10.106;2023-04-03T04:28:24;14.10;;;11.57;;
1010;SDS011;494;48.744;10.106;2023-04-03T04:30:53;17.17;;;10.80;;
1010;SDS011;494;48.744;10.106;2023-04-03T04:33:22;10.67;;;5.47;;
1010;SDS011;494;48.744;10.106;2023-04-03T04:35:51;9.70;;;4.73;;
1010;SDS011;494;48.744;10.106;2023-04-03T04:38:25;11.20;;;5.23;;
1010;SDS011;494;48.744;10.106;2023-04-03T04:41:05;11.23;;;5.20;;
1010;SDS011;494;48.744;10.106;2023-04-03T04:43:34;11.90;;;6.13;;
1010;SDS011;494;48.744;10.106;2023-04-03T04:46:03;11.50;;;5.73;;
1010;SDS011;494;48.744;10.106;2023-04-03T04:48:34;14.27;;;7.40;;
1010;SDS011;494;48.744;10.106;2023-04-03T04:51:04;11.33;;;5.50;;
1010;SDS011;494;48.744;10.106;2023-04-03T04:53:40;12.40;;;7.93;;
1010;SDS011;494;48.744;10.106;2023-04-03T04:56:09;11.47;;;6.10;;
1010;SDS011;494;48.744;10.106;2023-04-03T04:58:39;10.17;;;5.40;;
1010;SDS011;494;48.744;10.106;2023-04-03T05:01:09;12.20;;;6.30;;
1010;SDS011;494;48.744;10.106;2023-04-03T05:03:41;11.10;;;5.67;;
1010;SDS011;494;48.744;10.106;2023-04-03T05:06:13;12.30;;;6.60;;
1010;SDS011;494;48.744;10.106;2023-04-03T05:08:43;14.13;;;5.83;;
1010;SDS011;494;48.744;10.106;2023-04-03T05:11:12;10.40;;;5.37;;
1010;SDS011;494;48.744;10.106;2023-04-03T05:13:40;11.30;;;5.43;;
1010;SDS011;494;48.744;10.106;2023-04-03T05:16:09;12.10;;;8.63;;
1010;SDS011;494;48.744;10.106;2023-04-03T05:18:40;12.33;;;9.60;;
1010;SDS011;494;48.744;10.106;2023-04-03T05:21:34;12.83;;;11.37;;
1010;SDS011;494;48.744;10.106;2023-04-03T05:25:03;13.40;;;11.30;;
1010;SDS011;494;48.744;10.106;2023-04-03T05:28:20;12.47;;;10.63;;
1010;SDS011;494;48.744;10.106;2023-04-03T05:30:52;12.83;;;10.70;;
1010;SDS011;494;48.744;10.106;2023-04-03T05:33:22;12.57;;;10.50;;
1010;SDS011;494;48.744;10.106;2023-04-03T05:35:52;12.93;;;10.50;;
1010;SDS011;494;48.744;10.106;2023-04-03T05:38:22;12.17;;;9.97;;
1010;SDS011;494;48.744;10.106;2023-04-03T05:40:53;15.43;;;10.70;;
1010;SDS011;494;48.744;10.106;2023-04-03T05:43:22;13.63;;;10.33;;
1010;SDS011;494;48.744;10.106;2023-04-03T05:45:51;12.70;;;10.57;;
1010;SDS011;494;48.744;10.106;2023-04-03T05:48:20;14.37;;;9.80;;
1010;SDS011;494;48.744;10.106;2023-04-03T05:50:49;12.43;;;7.43;;
1010;SDS011;494;48.744;10.106;2023-04-03T05:53:23;13.80;;;7.63;;
1010;SDS011;494;48.744;10.106;2023-04-03T05:56:03;11.57;;;8.20;;
1010;SDS011;494;48.744;10.106;2023-04-03T05:58:33;10.80;;;7.40;;
1010;SDS011;494;48.744;10.106;2023-04-03T06:01:16;11.00;;;6.47;;
1010;SDS011;494;48.744;10.106;2023-04-03T06:03:45;11.90;;;7.73;;
1010;SDS011;494;48.744;10.106;2023-04-03T06:06:14;11.30;;;8.60;;
1010;SDS011;494;48.744;10.106;2023-04-03T06:08:43;12.43;;;6.93;;
1010;SDS011;494;48.744;10.106;2023-04-03T06:11:14;11.70;;;8.23;;
1010;SDS011;494;48.744;10.106;2023-04-03T06:13:43;11.53;;;8.67;;
1010;SDS011;494;48.744;10.106;2023-04-03T06:16:18;12.60;;;8.50;;
1010;SDS011;494;48.744;10.106;2023-04-03T06:18:47;12.60;;;7.33;;
1010;SDS011;494;48.744;10.106;2023-04-03T06:21:16;11.47;;;7.77;;
1010;SDS011;494;48.744;10.106;2023-04-03T06:23:45;11.40;;;7.80;;
1010;SDS011;494;48.744;10.106;2023-04-03T06:26:15;12.17;;;8.40;;
1010;SDS011;494;48.744;10.106;2023-04-03T06:28:45;12.03;;;9.00;;
1010;SDS011;494;48.744;10.106;2023-04-03T06:31:13;14.87;;;8.80;;
1010;SDS011;494;48.744;10.106;2023-04-03T06:33:43;12.47;;;8.20;;
1010;SDS011;494;48.744;10.106;2023-04-03T06:36:12;12.90;;;9.00;;
1010;SDS011;494;48.744;10.106;2023-04-03T06:38:41;13.43;;;10.80;;
1010;SDS011;494;48.744;10.106;2023-04-03T06:41:10;13.47;;;11.40;;
1010;SDS011;494;48.744;10.106;2023-04-03T06:43:41;15.57;;;13.17;;
1010;SDS011;494;48.744;10.106;2023-04-03T06:46:13;14.87;;;12.63;;
1010;SDS011;494;48.744;10.106;2023-04-03T06:48:44;14.13;;;12.13;;
1010;SDS011;494;48.744;10.106;2023-04-03T06:51:20;15.30;;;12.17;;
1010;SDS011;494;48.744;10.106;2023-04-03T06:53:50;14.50;;;10.90;;
1010;SDS011;494;48.744;10.106;2023-04-03T06:56:21;12.67;;;10.90;;
1010;SDS011;494;48.744;10.106;2023-04-03T06:58:53;14.07;;;11.40;;
1010;SDS011;494;48.744;10.106;2023-04-03T07:01:24;13.17;;;11.00;;
1010;SDS011;494;48.744;10.106;2023-04-03T07:03:54;13.87;;;10.73;;
1010;SDS011;494;48.744;10.106;2023-04-03T07:06:24;13.20;;;10.17;;
1010;SDS011;494;48.744;10.106;2023-04-03T07:08:54;13.23;;;11.00;;
1010;SDS011;494;48.744;10.106;2023-04-03T07:11:23;15.00;;;11.40;;
1010;SDS011;494;48.744;10.106;2023-04-03T07:13:54;15.13;;;11.13;;
1010;SDS011;494;48.744;10.106;2023-04-03T07:16:23;17.03;;;15.40;;
1010;SDS011;494;48.744;10.106;2023-04-03T07:18:52;14.00;;;12.20;;
1010;SDS011;494;48.744;10.106;2023-04-03T07:21:20;15.20;;;12.83;;
1010;SDS011;494;48.744;10.106;2023-04-03T07:23:49;16.20;;;14.60;;
1010;SDS011;494;48.744;10.106;2023-04-03T07:26:18;16.23;;;14.50;;
1010;SDS011;494;48.744;10.106;2023-04-03T07:28:47;15.43;;;13.60;;
1010;SDS011;494;48.744;10.106;2023-04-03T07:31:19;15.23;;;13.63;;
1010;SDS011;494;48.744;10.106;2023-04-03T07:33:56;19.20;;;17.27;;
1010;SDS011;494;48.744;10.106;2023-04-03T07:36:26;16.77;;;14.80;;
1010;SDS011;494;48.744;10.106;2023-04-03T07:39:00;16.07;;;14.37;;
1010;SDS011;494;48.744;10.106;2023-04-03T07:41:31;15.70;;;14.10;;
1010;SDS011;494;48.744;10.106;2023-04-03T07:44:00;16.63;;;14.77;;
1010;SDS011;494;48.744;10.106;2023-04-03T07:46:36;17.50;;;14.50;;
1010;SDS011;494;48.744;10.106;2023-04-03T07:49:07;15.70;;;12.47;;
1010;SDS011;494;48.744;10.106;2023-04-03T07:51:37;23.40;;;16.80;;
1010;SDS011;494;48.744;10.106;2023-04-03T07:54:06;19.90;;;18.00;;
1010;SDS011;494;48.744;10.106;2023-04-03T07:56:45;14.37;;;12.87;;
1010;SDS011;494;48.744;10.106;2023-04-03T07:59:22;16.57;;;12.60;;
1010;SDS011;494;48.744;10.106;2023-04-03T08:02:05;16.40;;;13.47;;
1010;SDS011;494;48.744;10.106;2023-04-03T08:04:42;19.97;;;14.30;;
1010;SDS011;494;48.744;10.106;2023-04-03T08:07:21;16.60;;;13.10;;
1010;SDS011;494;48.744;10.106;2023-04-03T08:09:51;18.00;;;13.87;;
1010;SDS011;494;48.744;10.106;2023-04-03T08:12:22;17.83;;;13.93;;
1010;SDS011;494;48.744;10.106;2023-04-03T08:15:07;17.07;;;13.97;;
1010;SDS011;494;48.744;10.106;2023-04-03T08:17:43;16.27;;;14.10;;
1010;SDS011;494;48.744;10.106;2023-04-03T08:20:17;16.30;;;14.10;;
1010;SDS011;494;48.744;10.106;2023-04-03T08:22:50;16.73;;;14.23;;
1010;SDS011;494;48.744;10.106;2023-04-03T08:25:37;16.50;;;14.87;;
1010;SDS011;494;48.744;10.106;2023-04-03T08:28:20;13.93;;;7.70;;
1010;SDS011;494;48.744;10.106;2023-04-03T08:30:56;14.13;;;7.97;;
1010;SDS011;494;48.744;10.106;2023-04-03T08:33:34;14.90;;;7.13;;
1010;SDS011;494;48.744;10.106;2023-04-03T08:36:04;15.27;;;13.67;;
1010;SDS011;494;48.744;10.106;2023-04-03T08:38:35;15.63;;;13.40;;
1010;SDS011;494;48.744;10.106;2023-04-03T08:41:04;14.57;;;13.07;;
1010;SDS011;494;48.744;10.106;2023-04-03T08:43:48;14.70;;;12.53;;
1010;SDS011;494;48.744;10.106;2023-04-03T08:46:32;16.87;;;12.90;;
1010;SDS011;494;48.744;10.106;2023-04-03T08:49:17;14.73;;;12.83;;
1010;SDS011;494;48.744;10.106;2023-04-03T08:51:56;15.97;;;13.13;;
1010;SDS011;494;48.744;10.106;2023-04-03T08:54:33;18.53;;;13.83;;
1010;SDS011;494;48.744;10.106;2023-04-03T08:57:09;16.00;;;12.23;;
1010;SDS011;494;48.744;10.106;2023-04-03T08:59:43;16.50;;;13.80;;
1010;SDS011;494;48.744;10.106;2023-04-03T09:02:17;17.70;;;14.60;;
1010;SDS011;494;48.744;10.106;2023-04-03T09:04:57;16.07;;;14.47;;
1010;SDS011;494;48.744;10.106;2023-04-03T09:07:30;17.47;;;14.63;;
1010;SDS011;494;48.744;10.106;2023-04-03T09:10:10;15.93;;;14.33;;
1010;SDS011;494;48.744;10.106;2023-04-03T09:12:42;20.10;;;14.27;;
1010;SDS011;494;48.744;10.106;2023-04-03T09:15:18;16.07;;;14.37;;
1010;SDS011;494;48.744;10.106;2023-04-03T09:18:05;15.30;;;12.47;;
1010;SDS011;494;48.744;10.106;2023-04-03T09:20:48;14.37;;;12.60;;
1010;SDS011;494;48.744;10.106;2023-04-03T09:23:29;14.23;;;8.07;;
1010;SDS011;494;48.744;10.106;2023-04-03T09:26:07;13.10;;;8.23;;
1010;SDS011;494;48.744;10.106;2023-04-03T09:28:47;13.50;;;8.73;;
1010;SDS011;494;48.744;10.106;2023-04-03T09:31:19;13.00;;;9.63;;
1010;SDS011;494;48.744;10.106;2023-04-03T09:33:53;11.17;;;8.20;;
1010;SDS011;494;48.744;10.106;2023-04-03T09:36:43;13.33;;;11.53;;
1010;SDS011;494;48.744;10.106;2023-04-03T09:39:15;16.30;;;14.63;;
1010;SDS011;494;48.744;10.106;2023-04-03T09:41:57;12.67;;;9.23;;
1010;SDS011;494;48.744;10.106;2023-04-03T09:44:33;13.57;;;7.97;;
1010;SDS011;494;48.744;10.106;2023-04-03T09:47:18;12.40;;;7.30;;
1010;SDS011;494;48.744;10.106;2023-04-03T09:50:18;13.70;;;7.77;;
1010;SDS011;494;48.744;10.106;2023-04-03T09:53:24;12.10;;;6.87;;
1010;SDS011;494;48.744;10.106;2023-04-03T09:55:59;11.20;;;7.43;;
1010;SDS011;494;48.744;10.106;2023-04-03T09:58:31;10.63;;;7.90;;
1010;SDS011;494;48.744;10.106;2023-04-03T10:01:34;10.60;;;7.37;;
1010;SDS011;494;48.744;10.106;2023-04-03T10:04:24;10.93;;;7.90;;
1010;SDS011;494;48.744;10.106;2023-04-03T10:07:04;10.87;;;6.77;;
1010;SDS011;494;48.744;10.106;2023-04-03T10:10:01;11.50;;;7.90;;
1010;SDS011;494;48.744;10.106;2023-04-03T10:13:01;12.60;;;7.97;;
1010;SDS011;494;48.744;10.106;2023-04-03T10:15:40;11.53;;;7.90;;
1010;SDS011;494;48.744;10.106;2023-04-03T10:18:27;10.97;;;8.10;;
1010;SDS011;494;48.744;10.106;2023-04-03T10:21:08;12.17;;;8.77;;
1010;SDS011;494;48.744;10.106;2023-04-03T10:23:54;12.63;;;9.47;;
1010;SDS011;494;48.744;10.106;2023-04-03T10:26:48;12.87;;;9.03;;
1010;SDS011;494;48.744;10.106;2023-04-03T10:29:30;10.37;;;6.43;;
1010;SDS011;494;48.744;10.106;2023-04-03T10:32:15;13.50;;;7.50;;
1010;SDS011;494;48.744;10.106;2023-04-03T10:35:12;9.87;;;7.33;;
1010;SDS011;494;48.744;10.106;2023-04-03T10:37:58;11.83;;;7.67;;
1010;SDS011;494;48.744;10.106;2023-04-03T10:40:44;11.70;;;7.70;;
1010;SDS011;494;48.744;10.106;2023-04-03T10:43:32;12.60;;;8.30;;
1010;SDS011;494;48.744;10.106;2023-04-03T10:46:09;10.50;;;7.40;;
1010;SDS011;494;48.744;10.106;2023-04-03T10:48:48;13.20;;;6.90;;
1010;SDS011;494;48.744;10.106;2023-04-03T10:51:45;12.43;;;8.30;;
1010;SDS011;494;48.744;10.106;2023-04-03T10:54:33;10.20;;;7.13;;
1010;SDS011;494;48.744;10.106;2023-04-03T10:57:08;10.67;;;7.60;;
1010;SDS011;494;48.744;10.106;2023-04-03T10:59:43;10.47;;;7.83;;
1010;SDS011;494;48.744;10.106;2023-04-03T11:02:22;11.27;;;7.80;;
1010;SDS011;494;48.744;10.106;2023-04-03T11:04:59;11.03;;;7.30;;
1010;SDS011;494;48.744;10.106;2023-04-03T11:07:37;13.10;;;8.30;;
1010;SDS011;494;48.744;10.106;2023-04-03T11:10:13;10.90;;;7.80;;
1010;SDS011;494;48.744;10.106;2023-04-03T11:12:51;10.70;;;8.60;;
1010;SDS011;494;48.744;10.106;2023-04-03T11:15:30;11.30;;;8.70;;
1010;SDS011;494;48.744;10.106;2023-04-03T11:18:02;11.40;;;8.23;;
1010;SDS011;494;48.744;10.106;2023-04-03T11:20:41;10.20;;;8.30;;
1010;SDS011;494;48.744;10.106;2023-04-03T11:23:19;11.53;;;8.57;;
1010;SDS011;494;48.744;10.106;2023-04-03T11:26:07;12.03;;;8.40;;
1010;SDS011;494;48.744;10.106;2023-04-03T11:28:41;11.27;;;8.27;;
1010;SDS011;494;48.744;10.106;2023-04-03T11:31:15;12.23;;;8.77;;
1010;SDS011;494;48.744;10.106;2023-04-03T11:34:14;11.07;;;8.10;;
1010;SDS011;494;48.744;10.106;2023-04-03T11:37:01;10.60;;;7.70;;
1010;SDS011;494;48.744;10.106;2023-04-03T11:39:41;10.90;;;8.57;;
1010;SDS011;494;48.744;10.106;2023-04-03T11:42:25;11.60;;;9.10;;
1010;SDS011;494;48.744;10.106;2023-04-03T11:48:05;12.13;;;8.80;;
1010;SDS011;494;48.744;10.106;2023-04-03T11:50:55;10.50;;;8.33;;
1010;SDS011;494;48.744;10.106;2023-04-03T11:53:30;11.83;;;8.77;;
1010;SDS011;494;48.744;10.106;2023-04-03T11:59:22;10.33;;;8.77;;
1010;SDS011;494;48.744;10.106;2023-04-03T12:01:59;11.67;;;8.10;;
1010;SDS011;494;48.744;10.106;2023-04-03T12:04:32;12.80;;;8.77;;
1010;SDS011;494;48.744;10.106;2023-04-03T12:07:14;16.60;;;11.73;;
1010;SDS011;494;48.744;10.106;2023-04-03T12:12:30;12.47;;;9.17;;
1010;SDS011;494;48.744;10.106;2023-04-03T12:15:24;11.93;;;8.90;;
1010;SDS011;494;48.744;10.106;2023-04-03T12:21:12;10.87;;;8.30;;
1010;SDS011;494;48.744;10.106;2023-04-03T12:27:02;12.43;;;8.93;;
1010;SDS011;494;48.744;10.106;2023-04-03T12:30:01;14.03;;;10.10;;
1010;SDS011;494;48.744;10.106;2023-04-03T12:36:15;11.87;;;9.53;;
1010;SDS011;494;48.744;10.106;2023-04-03T12:39:04;10.30;;;5.60;;
1010;SDS011;494;48.744;10.106;2023-04-03T12:42:38;12.17;;;5.50;;
1010;SDS011;494;48.744;10.106;2023-04-03T12:46:22;11.80;;;6.40;;
1010;SDS011;494;48.744;10.106;2023-04-03T12:53:19;11.23;;;5.60;;
1010;SDS011;494;48.744;10.106;2023-04-03T12:56:26;11.20;;;5.90;;
1010;SDS011;494;48.744;10.106;2023-04-03T12:59:44;10.27;;;5.30;;
1010;SDS011;494;48.744;10.106;2023-04-03T13:02:40;10.30;;;5.40;;
1010;SDS011;494;48.744;10.106;2023-04-03T13:05:30;9.73;;;5.17;;
1010;SDS011;494;48.744;10.106;2023-04-03T13:08:38;9.13;;;4.50;;
1010;SDS011;494;48.744;10.106;2023-04-03T13:11:18;10.53;;;5.10;;
1010;SDS011;494;48.744;10.106;2023-04-03T13:13:57;9.60;;;5.20;;
1010;SDS011;494;48.744;10.106;2023-04-03T13:16:32;9.47;;;4.67;;
1010;SDS011;494;48.744;10.106;2023-04-03T13:27:54;8.93;;;4.60;;
1010;SDS011;494;48.744;10.106;2023-04-03T13:31:38;10.87;;;6.20;;
1010;SDS011;494;48.744;10.106;2023-04-03T13:34:52;13.70;;;5.90;;
1010;SDS011;494;48.744;10.106;2023-04-03T13:46:30;14.03;;;12.47;;
1010;SDS011;494;48.744;10.106;2023-04-03T13:50:50;17.73;;;13.03;;
1010;SDS011;494;48.744;10.106;2023-04-03T13:53:32;13.77;;;11.90;;
1010;SDS011;494;48.744;10.106;2023-04-03T13:56:33;13.67;;;12.17;;
1010;SDS011;494;48.744;10.106;2023-04-03T13:59:20;12.60;;;11.23;;
1010;SDS011;494;48.744;10.106;2023-04-03T14:02:13;14.23;;;11.30;;
1010;SDS011;494;48.744;10.106;2023-04-03T14:05:35;19.57;;;16.10;;
1010;SDS011;494;48.744;10.106;2023-04-03T14:08:37;12.53;;;10.60;;
1010;SDS011;494;48.744;10.106;2023-04-03T14:11:11;15.73;;;10.73;;
1010;SDS011;494;48.744;10.106;2023-04-03T14:13:51;15.40;;;10.87;;
1010;SDS011;494;48.744;10.106;2023-04-03T14:16:44;13.63;;;10.60;;
1010;SDS011;494;48.744;10.106;2023-04-03T14:19:27;12.13;;;9.90;;
1010;SDS011;494;48.744;10.106;2023-04-03T14:22:01;11.67;;;9.87;;
1010;SDS011;494;48.744;10.106;2023-04-03T14:25:08;14.87;;;10.43;;
1010;SDS011;494;48.744;10.106;2023-04-03T14:27:55;11.70;;;10.07;;
1010;SDS011;494;48.744;10.106;2023-04-03T14:30:40;12.40;;;9.50;;
1010;SDS011;494;48.744;10.106;2023-04-03T14:33:23;13.70;;;9.80;;
1010;SDS011;494;48.744;10.106;2023-04-03T14:39:02;9.93;;;4.17;;
1010;SDS011;494;48.744;10.106;2023-04-03T14:42:36;8.97;;;3.60;;
1010;SDS011;494;48.744;10.106;2023-04-03T14:46:04;9.23;;;4.13;;
1010;SDS011;494;48.744;10.106;2023-04-03T14:57:54;10.50;;;4.13;;
1010;SDS011;494;48.744;10.106;2023-04-03T15:00:33;10.47;;;5.00;;
1010;SDS011;494;48.744;10.106;2023-04-03T15:03:14;13.40;;;4.70;;
1010;SDS011;494;48.744;10.106;2023-04-03T15:06:05;13.43;;;4.40;;
1010;SDS011;494;48.744;10.106;2023-04-03T15:09:16;13.20;;;4.93;;
1010;SDS011;494;48.744;10.106;2023-04-03T15:12:07;10.03;;;4.57;;
1010;SDS011;494;48.744;10.106;2023-04-03T15:15:12;10.40;;;4.47;;
1010;SDS011;494;48.744;10.106;2023-04-03T15:17:57;10.97;;;4.60;;
1010;SDS011;494;48.744;10.106;2023-04-03T15:21:08;10.40;;;4.37;;
1010;SDS011;494;48.744;10.106;2023-04-03T15:24:08;127.13;;;13.23;;
1010;SDS011;494;48.744;10.106;2023-04-03T15:30:16;13.83;;;5.23;;
1010;SDS011;494;48.744;10.106;2023-04-03T15:33:02;10.23;;;3.77;;
1010;SDS011;494;48.744;10.106;2023-04-03T15:36:16;12.97;;;4.20;;
1010;SDS011;494;48.744;10.106;2023-04-03T15:39:03;10.10;;;3.83;;
1010;SDS011;494;48.744;10.106;2023-04-03T15:41:51;14.83;;;4.00;;
1010;SDS011;494;48.744;10.106;2023-04-03T15:44:31;9.97;;;3.80;;
1010;SDS011;494;48.744;10.106;2023-04-03T15:47:13;10.93;;;4.63;;
1010;SDS011;494;48.744;10.106;2023-04-03T15:50:04;10.40;;;3.50;;
1010;SDS011;494;48.744;10.106;2023-04-03T15:52:55;8.93;;;3.97;;
1010;SDS011;494;48.744;10.106;2023-04-03T15:56:01;12.77;;;4.03;;
1010;SDS011;494;48.744;10.106;2023-04-03T15:59:21;11.67;;;4.97;;
1010;SDS011;494;48.744;10.106;2023-04-03T16:02:01;11.10;;;4.53;;
1010;SDS011;494;48.744;10.106;2023-04-03T16:05:16;12.20;;;5.47;;
1010;SDS011;494;48.744;10.106;2023-04-03T16:10:58;11.20;;;4.10;;
1010;SDS011;494;48.744;10.106;2023-04-03T16:13:43;10.10;;;3.83;;
1010;SDS011;494;48.744;10.106;2023-04-03T16:16:15;10.20;;;4.80;;
1010;SDS011;494;48.744;10.106;2023-04-03T16:19:00;10.40;;;4.03;;
1010;SDS011;494;48.744;10.106;2023-04-03T16:21:40;9.80;;;4.73;;
1010;SDS011;494;48.744;10.106;2023-04-03T16:24:39;9.37;;;4.40;;
1010;SDS011;494;48.744;10.106;2023-04-03T16:27:17;10.23;;;4.13;;
1010;SDS011;494;48.744;10.106;2023-04-03T16:30:00;13.03;;;4.60;;
1010;SDS011;494;48.744;10.106;2023-04-03T16:32:35;9.40;;;3.90;;
1010;SDS011;494;48.744;10.106;2023-04-03T16:35:10;9.63;;;4.10;;
1010;SDS011;494;48.744;10.106;2023-04-03T16:37:40;9.50;;;3.57;;
1010;SDS011;494;48.744;10.106;2023-04-03T16:40:09;10.10;;;4.30;;
1010;SDS011;494;48.744;10.106;2023-04-03T16:42:41;10.23;;;4.03;;
1010;SDS011;494;48.744;10.106;2023-04-03T16:45:12;10.67;;;4.30;;
1010;SDS011;494;48.744;10.106;2023-04-03T16:50:45;9.73;;;3.77;;
1010;SDS011;494;48.744;10.106;2023-04-03T16:53:52;11.60;;;3.93;;
1010;SDS011;494;48.744;10.106;2023-04-03T16:56:29;10.50;;;4.27;;
1010;SDS011;494;48.744;10.106;2023-04-03T16:59:00;10.27;;;4.30;;
1010;SDS011;494;48.744;10.106;2023-04-03T17:01:41;10.50;;;4.17;;
1010;SDS011;494;48.744;10.106;2023-04-03T17:04:15;10.47;;;4.20;;
1010;SDS011;494;48.744;10.106;2023-04-03T17:06:47;10.83;;;4.17;;
1010;SDS011;494;48.744;10.106;2023-04-03T17:09:20;10.40;;;4.30;;
1010;SDS011;494;48.744;10.106;2023-04-03T17:11:50;10.87;;;4.10;;